createdAt,value
2019-05-21T00:00:59.110Z,-23.75
2019-05-21T00:01:59.092Z,-23.91
2019-05-21T00:02:59.079Z,-24.29
2019-05-21T00:03:59.071Z,-23.68
2019-05-21T00:04:59.058Z,-23.87
2019-05-21T00:05:59.048Z,-24.20
2019-05-21T00:06:59.413Z,-23.10
2019-05-21T00:07:59.025Z,-24.03
2019-05-21T00:08:59.017Z,-22.40
2019-05-21T00:09:59.022Z,-24.28
2019-05-21T00:10:59.032Z,-21.68
2019-05-21T00:11:59.035Z,-22.76
2019-05-21T00:12:58.966Z,-22.25
2019-05-21T00:13:58.956Z,-23.91
2019-05-21T00:14:59.051Z,-21.91
2019-05-21T00:15:58.932Z,-22.89
2019-05-21T00:16:58.924Z,-23.60
2019-05-21T00:17:58.927Z,-24.54
2019-05-21T00:18:58.899Z,-24.46
2019-05-21T00:19:58.892Z,-23.89
2019-05-21T00:20:58.884Z,-24.38
2019-05-21T00:21:58.864Z,-23.87
2019-05-21T00:22:58.855Z,-24.95
2019-05-21T00:23:58.844Z,-23.57
2019-05-21T00:24:58.828Z,-24.74
2019-05-21T00:25:58.821Z,-24.47
2019-05-21T00:26:58.811Z,-26.39
2019-05-21T00:27:58.795Z,-30.02
2019-05-21T00:28:58.805Z,-24.11
2019-05-21T00:29:58.787Z,-28.09
2019-05-21T00:30:58.760Z,-25.02
2019-05-21T00:31:58.744Z,-25.50
2019-05-21T00:32:58.747Z,-26.70
2019-05-21T00:33:58.790Z,-21.06
2019-05-21T00:34:58.733Z,-24.52
2019-05-21T00:35:58.707Z,-27.18
2019-05-21T00:36:58.713Z,-27.26
2019-05-21T00:37:58.684Z,-28.97
2019-05-21T00:38:58.675Z,-27.43
2019-05-21T00:39:58.696Z,-24.61
2019-05-21T00:40:58.643Z,-25.99
2019-05-21T00:41:58.637Z,-25.20
2019-05-21T00:42:58.630Z,-22.50
2019-05-21T00:43:58.609Z,-24.58
2019-05-21T00:44:58.633Z,-24.69
2019-05-21T00:45:58.590Z,-25.91
2019-05-21T00:46:58.584Z,-22.09
2019-05-21T00:47:58.568Z,-23.78
2019-05-21T00:48:58.566Z,-24.26
2019-05-21T00:49:58.545Z,-22.24
2019-05-21T00:50:58.560Z,-23.23
2019-05-21T00:52:07.168Z,-21.45
2019-05-21T00:52:59.506Z,-24.16
2019-05-21T00:53:58.523Z,-21.98
2019-05-21T00:54:58.488Z,-22.19
2019-05-21T00:55:58.485Z,-25.62
2019-05-21T00:56:58.526Z,-20.11
2019-05-21T00:57:58.453Z,-25.22
2019-05-21T00:58:58.444Z,-20.66
2019-05-21T00:59:58.441Z,-23.58
2019-05-21T01:00:58.426Z,-22.71
2019-05-21T01:01:58.436Z,-24.88
2019-05-21T01:02:58.398Z,-24.65
2019-05-21T01:03:58.385Z,-22.85
2019-05-21T01:05:01.027Z,-26.76
2019-05-21T01:05:58.362Z,-21.82
2019-05-21T01:06:58.362Z,-24.84
2019-05-21T01:07:58.337Z,-23.82
2019-05-21T01:08:58.359Z,-23.59
2019-05-21T01:09:58.314Z,-25.89
2019-05-21T01:10:58.347Z,-27.71
2019-05-21T01:11:58.297Z,-27.02
2019-05-21T01:12:58.305Z,-29.75
2019-05-21T01:13:58.270Z,-28.02
2019-05-21T01:14:58.252Z,-28.50
2019-05-21T01:15:58.250Z,-28.29
2019-05-21T01:16:58.236Z,-26.68
2019-05-21T01:17:58.226Z,-27.41
2019-05-21T01:18:58.236Z,-25.32
2019-05-21T01:19:58.200Z,-27.79
2019-05-21T01:20:58.185Z,-27.57
2019-05-21T01:21:58.204Z,-29.33
2019-05-21T01:22:58.176Z,-27.98
2019-05-21T01:23:58.191Z,-27.68
2019-05-21T01:24:58.149Z,-28.70
2019-05-21T01:25:58.132Z,-24.84
2019-05-21T01:26:58.118Z,-26.27
2019-05-21T01:27:58.125Z,-26.50
2019-05-21T01:28:58.094Z,-27.83
2019-05-21T01:29:58.086Z,-26.74
2019-05-21T01:30:58.077Z,-25.89
2019-05-21T01:31:58.079Z,-26.79
2019-05-21T01:32:58.067Z,-27.74
2019-05-21T01:33:58.038Z,-26.81
2019-05-21T01:34:58.079Z,-26.41
2019-05-21T01:35:58.016Z,-27.58
2019-05-21T01:36:58.006Z,-24.24
2019-05-21T01:37:57.994Z,-28.88
2019-05-21T01:38:58.021Z,-29.57
2019-05-21T01:39:57.981Z,-26.85
2019-05-21T01:40:57.995Z,-29.51
2019-05-21T01:41:57.978Z,-27.59
2019-05-21T01:42:57.932Z,-29.15
2019-05-21T01:43:57.944Z,-29.22
2019-05-21T01:44:57.921Z,-30.77
2019-05-21T01:45:57.907Z,-28.12
2019-05-21T01:46:57.887Z,-28.50
2019-05-21T01:47:57.876Z,-28.74
2019-05-21T01:48:57.866Z,-30.88
2019-05-21T01:49:57.854Z,-28.67
2019-05-21T01:50:57.863Z,-26.36
2019-05-21T01:51:57.846Z,-28.90
2019-05-21T01:52:57.820Z,-25.74
2019-05-21T01:53:57.812Z,-26.23
2019-05-21T01:54:57.811Z,-27.88
2019-05-21T01:55:57.784Z,-26.03
2019-05-21T01:56:57.780Z,-25.06
2019-05-21T01:57:57.764Z,-25.65
2019-05-21T01:58:57.751Z,-27.98
2019-05-21T01:59:57.744Z,-28.95
2019-05-21T02:00:57.807Z,-29.15
2019-05-21T02:01:57.731Z,-29.87
2019-05-21T02:02:57.731Z,-31.82
2019-05-21T02:03:57.699Z,-29.67
2019-05-21T02:04:57.688Z,-29.43
2019-05-21T02:05:57.679Z,-32.12
2019-05-21T02:06:57.657Z,-32.88
2019-05-21T02:07:57.652Z,-30.20
2019-05-21T02:08:57.637Z,-27.73
2019-05-21T02:09:57.647Z,-29.97
2019-05-21T02:10:57.637Z,-29.69
2019-05-21T02:11:57.608Z,-31.89
2019-05-21T02:12:57.599Z,-30.36
2019-05-21T02:13:57.585Z,-30.61
2019-05-21T02:14:57.570Z,-29.87
2019-05-21T02:15:57.568Z,-31.93
2019-05-21T02:16:57.547Z,-28.74
2019-05-21T02:17:57.527Z,-30.46
2019-05-21T02:18:57.548Z,-29.94
2019-05-21T02:19:57.550Z,-31.01
2019-05-21T02:20:57.500Z,-28.71
2019-05-21T02:21:57.487Z,-30.74
2019-05-21T02:22:58.298Z,-28.96
2019-05-21T02:23:57.469Z,-30.69
2019-05-21T02:24:57.478Z,-32.79
2019-05-21T02:25:57.454Z,-29.51
2019-05-21T02:26:57.425Z,-31.15
2019-05-21T02:27:57.424Z,-28.74
2019-05-21T02:28:57.413Z,-29.72
2019-05-21T02:29:57.412Z,-29.99
2019-05-21T02:30:57.401Z,-27.79
2019-05-21T02:31:57.377Z,-28.69
2019-05-21T02:32:57.365Z,-28.92
2019-05-21T02:33:57.377Z,-26.50
2019-05-21T02:34:57.341Z,-28.81
2019-05-21T02:35:57.336Z,-28.49
2019-05-21T02:36:57.325Z,-29.65
2019-05-21T02:37:57.315Z,-26.04
2019-05-21T02:38:57.302Z,-29.07
2019-05-21T02:39:57.282Z,-29.81
2019-05-21T02:40:57.277Z,-27.31
2019-05-21T02:41:57.288Z,-29.70
2019-05-21T02:42:57.244Z,-30.24
2019-05-21T02:43:57.236Z,-32.61
2019-05-21T02:44:57.244Z,-30.30
2019-05-21T02:45:57.220Z,-28.76
2019-05-21T02:46:57.218Z,-29.94
2019-05-21T02:47:57.189Z,-27.18
2019-05-21T02:48:57.193Z,-28.25
2019-05-21T02:49:57.175Z,-28.81
2019-05-21T02:50:57.174Z,-28.48
2019-05-21T02:51:57.154Z,-29.23
2019-05-21T02:52:57.149Z,-27.95
2019-05-21T02:53:57.321Z,-27.93
2019-05-21T02:54:57.121Z,-28.45
2019-05-21T02:55:57.114Z,-27.69
2019-05-21T02:56:57.096Z,-26.32
2019-05-21T02:57:57.092Z,-26.96
2019-05-21T02:58:57.100Z,-29.70
2019-05-21T02:59:57.061Z,-25.47
2019-05-21T03:00:57.049Z,-28.43
2019-05-21T03:01:57.043Z,-27.86
2019-05-21T03:02:57.020Z,-26.35
2019-05-21T03:03:57.028Z,-26.28
2019-05-21T03:04:56.999Z,-26.68
2019-05-21T03:06:12.488Z,-28.37
2019-05-21T03:06:57.976Z,-29.12
2019-05-21T03:07:56.996Z,-28.99
2019-05-21T03:08:56.970Z,-26.60
2019-05-21T03:09:56.943Z,-28.54
2019-05-21T03:10:56.942Z,-29.04
2019-05-21T03:11:56.916Z,-30.40
2019-05-21T03:12:56.909Z,-30.21
2019-05-21T03:13:56.893Z,-30.34
2019-05-21T03:14:56.914Z,-27.13
2019-05-21T03:15:56.885Z,-27.49
2019-05-21T03:16:56.877Z,-27.28
2019-05-21T03:17:57.096Z,-27.03
2019-05-21T03:18:56.841Z,-29.57
2019-05-21T03:19:56.855Z,-29.03
2019-05-21T03:20:56.814Z,-28.43
2019-05-21T03:21:56.802Z,-30.48
2019-05-21T03:22:56.801Z,-30.86
2019-05-21T03:23:56.798Z,-31.44
2019-05-21T03:25:01.380Z,-31.21
2019-05-21T03:25:57.756Z,-30.28
2019-05-21T03:26:56.753Z,-31.17
2019-05-21T03:27:56.736Z,-30.50
2019-05-21T03:28:56.744Z,-34.44
2019-05-21T03:29:56.722Z,-33.29
2019-05-21T03:30:56.699Z,-32.75
2019-05-21T03:31:56.703Z,-32.74
2019-05-21T03:32:56.682Z,-36.08
2019-05-21T03:33:56.661Z,-34.59
2019-05-21T03:34:56.675Z,-33.85
2019-05-21T03:35:56.677Z,-39.35
2019-05-21T03:36:56.700Z,-36.91
2019-05-21T03:37:56.629Z,-37.64
2019-05-21T03:38:56.622Z,-38.72
2019-05-21T03:39:56.602Z,-36.52
2019-05-21T03:40:56.592Z,-39.30
2019-05-21T03:41:56.584Z,-40.10
2019-05-21T03:42:56.587Z,-39.08
2019-05-21T03:43:56.558Z,-41.53
2019-05-21T03:45:00.364Z,-42.56
2019-05-21T03:45:56.589Z,-41.23
2019-05-21T03:46:56.527Z,-41.38
2019-05-21T03:47:56.524Z,-41.89
2019-05-21T03:48:56.494Z,-42.47
2019-05-21T03:49:56.487Z,-43.30
2019-05-21T03:50:56.474Z,-43.92
2019-05-21T03:51:56.476Z,-44.62
2019-05-21T03:52:56.485Z,-42.04
2019-05-21T03:53:57.215Z,-43.44
2019-05-21T03:54:56.461Z,-44.42
2019-05-21T03:55:56.608Z,-42.60
2019-05-21T03:56:56.455Z,-43.58
2019-05-21T03:57:56.405Z,-38.51
2019-05-21T03:58:56.463Z,-40.70
2019-05-21T03:59:56.389Z,-43.04
2019-05-21T04:00:56.358Z,-41.91
2019-05-21T04:01:56.361Z,-41.18
2019-05-21T04:02:56.366Z,-41.55
2019-05-21T04:03:56.331Z,-41.59
2019-05-21T04:04:56.333Z,-42.30
2019-05-21T04:05:56.318Z,-44.37
2019-05-21T04:06:56.301Z,-42.79
2019-05-21T04:07:56.303Z,-39.56
2019-05-21T04:08:56.371Z,-43.69
2019-05-21T04:09:56.270Z,-41.72
2019-05-21T04:10:56.252Z,-44.95
2019-05-21T04:11:56.240Z,-47.07
2019-05-21T04:12:56.247Z,-47.21
2019-05-21T04:13:56.228Z,-50.39
2019-05-21T04:14:56.206Z,-49.32
2019-05-21T04:15:56.210Z,-46.74
2019-05-21T04:16:56.287Z,-48.34
2019-05-21T04:17:56.166Z,-44.77
2019-05-21T04:18:56.229Z,-43.83
2019-05-21T04:19:56.151Z,-45.39
2019-05-21T04:20:56.149Z,-45.56
2019-05-21T04:21:56.136Z,-44.52
2019-05-21T04:22:56.125Z,-38.65
2019-05-21T04:23:56.101Z,-45.34
2019-05-21T04:24:56.090Z,-44.55
2019-05-21T04:25:56.077Z,-44.33
2019-05-21T04:26:56.074Z,-49.56
2019-05-21T04:27:56.082Z,-47.55
2019-05-21T04:28:56.253Z,-46.15
2019-05-21T04:29:56.036Z,-44.73
2019-05-21T04:30:56.018Z,-45.40
2019-05-21T04:31:56.040Z,-51.38
2019-05-21T04:32:56.007Z,-48.24
2019-05-21T04:33:55.980Z,-48.75
2019-05-21T04:34:55.982Z,-45.97
2019-05-21T04:35:55.963Z,-44.97
2019-05-21T04:37:09.792Z,-46.88
2019-05-21T04:37:56.945Z,-45.13
2019-05-21T04:38:55.987Z,-49.38
2019-05-21T04:39:55.941Z,-50.84
2019-05-21T04:40:55.912Z,-51.39
2019-05-21T04:41:55.899Z,-56.75
2019-05-21T04:42:55.892Z,-49.99
2019-05-21T04:43:55.883Z,-55.78
2019-05-21T04:44:55.904Z,-60.98
2019-05-21T04:45:55.951Z,-55.34
2019-05-21T04:46:55.846Z,-56.53
2019-05-21T04:47:55.870Z,-55.10
2019-05-21T04:48:55.871Z,-63.05
2019-05-21T04:49:55.820Z,-48.39
2019-05-21T04:50:55.877Z,-54.93
2019-05-21T04:51:55.786Z,-64.05
2019-05-21T04:52:55.778Z,-58.92
2019-05-21T04:53:55.782Z,-63.36
2019-05-21T04:54:55.757Z,-60.78
2019-05-21T04:55:55.732Z,-61.05
2019-05-21T04:56:55.729Z,-66.69
2019-05-21T04:57:55.734Z,-67.25
2019-05-21T04:58:55.710Z,-74.45
2019-05-21T04:59:55.708Z,-69.44
2019-05-21T05:00:55.702Z,-80.03
2019-05-21T05:01:55.671Z,-77.57
2019-05-21T05:02:55.664Z,-68.06
2019-05-21T05:03:55.676Z,-72.83
2019-05-21T05:04:55.634Z,-67.26
2019-05-21T05:05:55.636Z,-66.69
2019-05-21T05:06:55.616Z,-76.11
2019-05-21T05:07:55.607Z,-77.19
2019-05-21T05:08:55.597Z,-76.25
2019-05-21T05:09:55.581Z,-71.23
2019-05-21T05:10:55.577Z,-75.35
2019-05-21T05:11:55.565Z,-70.52
2019-05-21T05:12:55.554Z,-64.89
2019-05-21T05:13:55.540Z,-79.44
2019-05-21T05:14:55.528Z,-64.57
2019-05-21T05:15:55.511Z,-76.31
2019-05-21T05:16:55.518Z,-61.30
2019-05-21T05:17:55.499Z,-70.99
2019-05-21T05:18:55.484Z,-72.80
2019-05-21T05:19:55.471Z,-57.32
2019-05-21T05:20:55.461Z,-59.94
2019-05-21T05:21:55.448Z,-54.49
2019-05-21T05:22:55.438Z,-51.00
2019-05-21T05:23:55.481Z,-63.48
2019-05-21T05:24:55.409Z,-72.05
2019-05-21T05:25:55.417Z,-59.97
2019-05-21T05:26:55.391Z,-51.66
2019-05-21T05:27:55.385Z,-55.30
2019-05-21T05:28:55.402Z,-48.81
2019-05-21T05:29:55.360Z,-57.93
2019-05-21T05:30:55.351Z,-63.79
2019-05-21T05:31:55.336Z,-63.58
2019-05-21T05:32:55.324Z,-59.35
2019-05-21T05:33:55.325Z,-38.56
2019-05-21T05:34:55.449Z,-49.49
2019-05-21T05:35:55.295Z,-49.75
2019-05-21T05:36:55.280Z,-49.93
2019-05-21T05:37:55.269Z,-35.40
2019-05-21T05:38:55.281Z,-38.63
2019-05-21T05:39:55.281Z,-40.13
2019-05-21T05:40:55.254Z,-42.52
2019-05-21T05:41:55.223Z,-38.84
2019-05-21T05:42:55.240Z,-49.11
2019-05-21T05:43:55.208Z,-42.61
2019-05-21T05:44:55.199Z,-33.65
2019-05-21T05:45:55.195Z,-35.15
2019-05-21T05:46:55.165Z,-39.35
2019-05-21T05:47:55.156Z,-34.27
2019-05-21T05:48:55.144Z,-49.87
2019-05-21T05:49:55.151Z,-50.39
2019-05-21T05:50:55.140Z,-36.03
2019-05-21T05:51:55.138Z,-34.14
2019-05-21T05:52:55.108Z,-35.89
2019-05-21T05:53:55.092Z,-38.40
2019-05-21T05:54:55.092Z,-42.25
2019-05-21T05:55:55.076Z,-49.41
2019-05-21T05:56:55.062Z,-49.88
2019-05-21T05:57:55.043Z,-69.46
2019-05-21T05:58:55.036Z,-45.97
2019-05-21T05:59:55.025Z,-44.68
2019-05-21T06:00:55.018Z,-43.47
2019-05-21T06:01:55.007Z,-49.90
2019-05-21T06:02:55.030Z,-47.71
2019-05-21T06:03:55.019Z,-46.53
2019-05-21T06:04:54.966Z,-53.00
2019-05-21T06:05:54.975Z,-53.04
2019-05-21T06:06:54.941Z,-54.22
2019-05-21T06:07:59.826Z,-57.56
2019-05-21T06:08:55.919Z,-45.64
2019-05-21T06:09:54.913Z,-47.24
2019-05-21T06:10:54.901Z,-46.43
2019-05-21T06:11:54.887Z,-46.52
2019-05-21T06:12:54.875Z,-46.35
2019-05-21T06:13:54.868Z,-43.00
2019-05-21T06:14:54.856Z,-47.52
2019-05-21T06:15:54.939Z,-48.56
2019-05-21T06:16:54.832Z,-46.97
2019-05-21T06:17:54.837Z,-47.82
2019-05-21T06:18:54.812Z,-46.20
2019-05-21T06:19:54.898Z,-59.03
2019-05-21T06:20:54.784Z,-54.47
2019-05-21T06:21:54.777Z,-48.90
2019-05-21T06:22:54.759Z,-48.68
2019-05-21T06:23:54.764Z,-53.36
2019-05-21T06:24:54.756Z,-45.92
2019-05-21T06:25:54.853Z,-47.90
2019-05-21T06:26:54.738Z,-45.88
2019-05-21T06:27:54.715Z,-49.95
2019-05-21T06:28:55.290Z,-53.32
2019-05-21T06:29:54.685Z,-51.11
2019-05-21T06:30:54.685Z,-52.95
2019-05-21T06:31:54.750Z,-53.26
2019-05-21T06:32:54.651Z,-55.96
2019-05-21T06:33:54.647Z,-57.36
2019-05-21T06:34:54.629Z,-61.61
2019-05-21T06:35:54.621Z,-57.93
2019-05-21T06:36:54.602Z,-54.84
2019-05-21T06:37:54.591Z,-48.96
2019-05-21T06:38:54.582Z,-54.60
2019-05-21T06:39:54.585Z,-57.86
2019-05-21T06:40:54.577Z,-54.42
2019-05-21T06:41:54.567Z,-50.58
2019-05-21T06:42:54.564Z,-47.13
2019-05-21T06:43:54.531Z,-45.42
2019-05-21T06:44:54.539Z,-43.11
2019-05-21T06:45:54.504Z,-49.11
2019-05-21T06:46:54.499Z,-51.00
2019-05-21T06:47:54.563Z,-44.72
2019-05-21T06:48:54.563Z,-45.63
2019-05-21T06:49:54.457Z,-50.98
2019-05-21T06:50:54.445Z,-51.50
2019-05-21T06:51:54.434Z,-54.42
2019-05-21T06:52:54.439Z,-49.56
2019-05-21T06:53:54.411Z,-51.70
2019-05-21T06:54:54.469Z,-54.51
2019-05-21T06:55:54.402Z,-52.13
2019-05-21T06:56:54.370Z,-54.30
2019-05-21T06:57:54.391Z,-48.68
2019-05-21T06:58:54.393Z,-46.75
2019-05-21T06:59:54.394Z,-43.15
2019-05-21T07:00:54.338Z,-45.54
2019-05-21T07:01:54.320Z,-49.38
2019-05-21T07:02:54.313Z,-54.48
2019-05-21T07:03:54.318Z,-53.51
2019-05-21T07:04:54.297Z,-54.09
2019-05-21T07:05:58.990Z,-49.80
2019-05-21T07:06:55.263Z,-47.91
2019-05-21T07:07:54.251Z,-43.57
2019-05-21T07:08:54.250Z,-44.14
2019-05-21T07:09:54.223Z,-54.68
2019-05-21T07:10:54.210Z,-51.41
2019-05-21T07:11:54.218Z,-48.26
2019-05-21T07:12:54.189Z,-52.58
2019-05-21T07:13:54.184Z,-59.30
2019-05-21T07:14:54.188Z,-58.59
2019-05-21T07:15:54.173Z,-56.41
2019-05-21T07:16:54.146Z,-54.22
2019-05-21T07:17:54.151Z,-61.19
2019-05-21T07:18:54.163Z,-47.09
2019-05-21T07:19:54.132Z,-50.92
2019-05-21T07:20:54.118Z,-44.91
2019-05-21T07:21:54.166Z,-39.64
2019-05-21T07:22:54.167Z,-47.97
2019-05-21T07:23:54.898Z,-39.54
2019-05-21T07:24:54.056Z,-51.64
2019-05-21T07:25:54.046Z,-40.46
2019-05-21T07:26:54.040Z,-38.69
2019-05-21T07:27:54.018Z,-39.20
2019-05-21T07:28:55.381Z,-41.56
2019-05-21T07:29:54.001Z,-37.54
2019-05-21T07:30:53.994Z,-41.20
2019-05-21T07:31:54.032Z,-42.36
2019-05-21T07:32:54.051Z,-45.75
2019-05-21T07:33:53.966Z,-43.19
2019-05-21T07:34:53.965Z,-41.73
2019-05-21T07:35:53.961Z,-55.20
2019-05-21T07:36:53.933Z,-49.74
2019-05-21T07:37:53.910Z,-48.50
2019-05-21T07:38:54.387Z,-48.53
2019-05-21T07:39:53.886Z,-45.31
2019-05-21T07:40:53.878Z,-47.49
2019-05-21T07:41:53.872Z,-49.30
2019-05-21T07:42:53.879Z,-53.52
2019-05-21T07:43:53.836Z,-54.91
2019-05-21T07:44:53.831Z,-47.16
2019-05-21T07:45:53.842Z,-44.34
2019-05-21T07:46:53.807Z,-43.62
2019-05-21T07:47:53.801Z,-49.05
2019-05-21T07:48:53.782Z,-49.63
2019-05-21T07:49:53.773Z,-45.94
2019-05-21T07:50:53.897Z,-39.80
2019-05-21T07:51:53.774Z,-48.30
2019-05-21T07:52:53.751Z,-48.57
2019-05-21T07:53:53.775Z,-52.73
2019-05-21T07:54:53.717Z,-48.75
2019-05-21T07:55:53.706Z,-33.06
2019-05-21T07:56:53.750Z,-42.16
2019-05-21T07:57:53.695Z,-44.06
2019-05-21T07:58:53.685Z,-45.24
2019-05-21T07:59:53.659Z,-53.21
2019-05-21T08:00:53.654Z,-60.60
2019-05-21T08:01:53.636Z,-60.17
2019-05-21T08:02:53.639Z,-54.25
2019-05-21T08:03:53.751Z,-40.44
2019-05-21T08:04:53.606Z,-35.10
2019-05-21T08:05:53.587Z,-48.47
2019-05-21T08:06:53.605Z,-54.72
2019-05-21T08:07:53.566Z,-51.50
2019-05-21T08:09:11.367Z,-45.88
2019-05-21T08:09:54.543Z,-45.65
2019-05-21T08:10:53.543Z,-42.31
2019-05-21T08:11:53.555Z,-41.58
2019-05-21T08:12:53.526Z,-40.86
2019-05-21T08:13:53.513Z,-47.52
2019-05-21T08:14:53.516Z,-44.17
2019-05-21T08:15:53.511Z,-55.42
2019-05-21T08:16:53.469Z,-41.44
2019-05-21T08:17:53.470Z,-48.98
2019-05-21T08:18:53.482Z,-48.10
2019-05-21T08:19:53.439Z,-42.24
2019-05-21T08:20:53.433Z,-40.42
2019-05-21T08:21:53.425Z,-47.13
2019-05-21T08:22:53.534Z,-45.90
2019-05-21T08:23:53.390Z,-46.24
2019-05-21T08:24:53.382Z,-46.01
2019-05-21T08:25:53.362Z,-42.59
2019-05-21T08:26:53.376Z,-40.79
2019-05-21T08:27:53.352Z,-39.24
2019-05-21T08:28:53.333Z,-43.31
2019-05-21T08:29:53.321Z,-40.75
2019-05-21T08:30:53.308Z,-43.39
2019-05-21T08:31:53.301Z,-43.94
2019-05-21T08:32:53.291Z,-37.82
2019-05-21T08:33:53.273Z,-42.75
2019-05-21T08:34:53.262Z,-40.94
2019-05-21T08:35:53.284Z,-44.10
2019-05-21T08:36:53.240Z,-41.69
2019-05-21T08:37:53.232Z,-41.98
2019-05-21T08:38:53.216Z,-40.07
2019-05-21T08:39:53.209Z,-39.13
2019-05-21T08:40:53.189Z,-35.74
2019-05-21T08:41:53.200Z,-26.47
2019-05-21T08:42:53.176Z,-30.62
2019-05-21T08:43:53.171Z,-35.30
2019-05-21T08:44:53.151Z,-38.08
2019-05-21T08:45:53.142Z,-40.48
2019-05-21T08:46:53.129Z,-34.86
2019-05-21T08:47:53.111Z,-35.60
2019-05-21T08:48:53.106Z,-51.34
2019-05-21T08:49:53.114Z,-61.02
2019-05-21T08:50:53.089Z,-60.51
2019-05-21T08:51:53.136Z,-58.09
2019-05-21T08:52:53.076Z,-51.41
2019-05-21T08:53:53.047Z,-51.04
2019-05-21T08:55:05.911Z,-59.33
2019-05-21T08:55:54.023Z,-44.49
2019-05-21T08:56:53.016Z,-50.13
2019-05-21T08:58:06.581Z,-54.06
2019-05-21T08:58:54.038Z,-38.88
2019-05-21T08:59:52.990Z,-37.93
2019-05-21T09:00:52.975Z,-43.43
2019-05-21T09:01:52.998Z,-55.95
2019-05-21T09:02:52.953Z,-58.63
2019-05-21T09:03:52.958Z,-60.20
2019-05-21T09:04:52.927Z,-65.84
2019-05-21T09:05:52.922Z,-60.13
2019-05-21T09:06:52.905Z,-61.74
2019-05-21T09:07:54.116Z,-47.31
2019-05-21T09:08:52.880Z,-55.12
2019-05-21T09:09:52.899Z,-40.99
2019-05-21T09:10:52.854Z,-39.13
2019-05-21T09:11:52.851Z,-46.33
2019-05-21T09:12:52.841Z,-56.82
2019-05-21T09:13:52.874Z,-39.02
2019-05-21T09:14:52.820Z,-48.78
2019-05-21T09:15:52.807Z,-57.34
2019-05-21T09:16:52.810Z,-52.84
2019-05-21T09:17:52.798Z,-39.85
2019-05-21T09:18:52.767Z,-50.56
2019-05-21T09:19:52.755Z,-41.26
2019-05-21T09:20:52.758Z,-46.27
2019-05-21T09:21:52.734Z,-39.85
2019-05-21T09:22:52.734Z,-44.52
2019-05-21T09:23:52.712Z,-49.88
2019-05-21T09:24:52.704Z,-47.16
2019-05-21T09:25:52.691Z,-42.57
2019-05-21T09:26:52.681Z,-38.57
2019-05-21T09:27:52.665Z,-47.29
2019-05-21T09:28:52.683Z,-53.83
2019-05-21T09:29:52.650Z,-52.84
2019-05-21T09:30:52.654Z,-72.28
2019-05-21T09:31:52.645Z,-70.76
2019-05-21T09:32:52.614Z,-53.07
2019-05-21T09:33:52.610Z,-65.93
2019-05-21T09:34:52.614Z,-51.29
2019-05-21T09:35:52.575Z,-61.77
2019-05-21T09:36:52.569Z,-65.97
2019-05-21T09:37:52.579Z,-60.91
2019-05-21T09:38:52.569Z,-59.19
2019-05-21T09:39:52.575Z,-54.08
2019-05-21T09:40:52.570Z,-42.57
2019-05-21T09:41:52.513Z,-50.96
2019-05-21T09:42:52.498Z,-39.53
2019-05-21T09:43:52.490Z,-57.97
2019-05-21T09:44:52.485Z,-42.01
2019-05-21T09:45:52.502Z,-25.25
2019-05-21T09:46:52.451Z,-29.88
2019-05-21T09:47:52.445Z,-27.58
2019-05-21T09:48:54.281Z,-28.77
2019-05-21T09:49:52.425Z,-40.08
2019-05-21T09:50:52.412Z,-29.94
2019-05-21T09:51:52.416Z,-26.05
2019-05-21T09:52:52.465Z,-41.70
2019-05-21T09:53:52.383Z,-61.41
2019-05-21T09:54:52.389Z,-48.17
2019-05-21T09:55:52.394Z,-58.95
2019-05-21T09:56:52.345Z,-65.71
2019-05-21T09:57:52.372Z,-72.06
2019-05-21T09:58:52.320Z,-61.25
2019-05-21T09:59:52.310Z,-65.86
2019-05-21T10:00:52.298Z,-70.59
2019-05-21T10:01:52.306Z,-82.25
2019-05-21T10:02:52.292Z,-83.36
2019-05-21T10:03:52.270Z,-75.93
2019-05-21T10:04:52.259Z,-79.96
2019-05-21T10:05:52.252Z,-60.80
2019-05-21T10:06:52.236Z,-74.65
2019-05-21T10:07:52.233Z,-68.43
2019-05-21T10:08:52.210Z,-76.74
2019-05-21T10:09:52.200Z,-64.78
2019-05-21T10:10:52.188Z,-62.21
2019-05-21T10:11:52.172Z,-69.26
2019-05-21T10:12:52.172Z,-50.60
2019-05-21T10:13:52.163Z,-45.49
2019-05-21T10:14:52.148Z,-47.74
2019-05-21T10:15:52.130Z,-73.18
2019-05-21T10:16:52.118Z,-47.34
2019-05-21T10:17:52.110Z,-62.29
2019-05-21T10:18:52.118Z,-39.82
2019-05-21T10:19:52.103Z,-48.18
2019-05-21T10:20:52.095Z,-45.38
2019-05-21T10:21:52.067Z,-61.03
2019-05-21T10:22:52.072Z,-66.01
2019-05-21T10:23:52.043Z,-59.94
2019-05-21T10:24:52.057Z,-65.57
2019-05-21T10:25:52.048Z,-56.53
2019-05-21T10:26:52.008Z,-61.66
2019-05-21T10:27:51.993Z,-59.77
2019-05-21T10:28:51.984Z,-56.34
2019-05-21T10:29:51.983Z,-52.76
2019-05-21T10:30:52.011Z,-60.53
2019-05-21T10:31:51.948Z,-53.44
2019-05-21T10:32:51.936Z,-73.83
2019-05-21T10:33:51.937Z,-62.69
2019-05-21T10:34:51.939Z,-71.19
2019-05-21T10:35:51.949Z,-51.07
2019-05-21T10:36:51.898Z,-57.77
2019-05-21T10:37:54.938Z,-54.46
2019-05-21T10:38:51.871Z,-63.32
2019-05-21T10:39:51.861Z,-51.05
2019-05-21T10:40:51.852Z,-67.53
2019-05-21T10:41:51.849Z,-56.12
2019-05-21T10:42:51.846Z,-31.01
2019-05-21T10:43:51.846Z,-39.56
2019-05-21T10:44:51.803Z,-53.68
2019-05-21T10:45:51.805Z,-54.53
2019-05-21T10:46:51.805Z,-51.29
2019-05-21T10:47:51.766Z,-47.49
2019-05-21T10:48:51.763Z,-54.98
2019-05-21T10:49:51.746Z,-64.45
2019-05-21T10:50:51.730Z,-54.91
2019-05-21T10:51:51.731Z,-63.62
2019-05-21T10:52:51.741Z,-67.93
2019-05-21T10:53:51.728Z,-52.64
2019-05-21T10:54:51.704Z,-66.40
2019-05-21T10:55:51.674Z,-69.62
2019-05-21T10:56:51.665Z,-67.77
2019-05-21T10:57:51.670Z,-54.20
2019-05-21T10:58:51.640Z,-69.44
2019-05-21T10:59:51.633Z,-48.88
2019-05-21T11:00:51.622Z,-63.69
2019-05-21T11:01:51.652Z,-67.92
2019-05-21T11:02:51.703Z,-63.05
2019-05-21T11:03:51.589Z,-51.39
2019-05-21T11:04:51.581Z,-77.86
2019-05-21T11:06:08.603Z,-79.08
2019-05-21T11:06:52.557Z,-73.69
2019-05-21T11:07:51.539Z,-67.89
2019-05-21T11:08:51.529Z,-55.52
2019-05-21T11:09:51.535Z,-51.46
2019-05-21T11:10:51.528Z,-47.45
2019-05-21T11:11:51.511Z,-52.67
2019-05-21T11:12:51.484Z,-53.23
2019-05-21T11:13:51.479Z,-57.98
2019-05-21T11:14:51.471Z,-66.49
2019-05-21T11:15:51.471Z,-58.76
2019-05-21T11:16:51.451Z,-78.40
2019-05-21T11:18:09.033Z,-60.69
2019-05-21T11:18:52.420Z,-48.64
2019-05-21T11:19:51.411Z,-75.54
2019-05-21T11:20:51.801Z,-59.34
2019-05-21T11:21:51.389Z,-56.42
2019-05-21T11:22:51.386Z,-80.43
2019-05-21T11:23:51.419Z,-55.34
2019-05-21T11:24:51.351Z,-48.90
2019-05-21T11:25:51.349Z,-78.48
2019-05-21T11:26:51.351Z,-81.28
2019-05-21T11:27:51.324Z,-44.57
2019-05-21T11:28:51.329Z,-52.13
2019-05-21T11:29:51.326Z,-46.59
2019-05-21T11:30:51.772Z,-67.32
2019-05-21T11:31:57.150Z,-60.02
2019-05-21T11:32:52.263Z,-69.87
2019-05-21T11:33:51.266Z,-62.20
2019-05-21T11:34:51.242Z,-61.18
2019-05-21T11:35:51.227Z,-57.43
2019-05-21T11:36:51.222Z,-71.10
2019-05-21T11:37:51.222Z,-66.80
2019-05-21T11:38:51.207Z,-39.42
2019-05-21T11:39:51.191Z,-45.89
2019-05-21T11:40:51.496Z,-53.72
2019-05-21T11:41:51.720Z,-37.20
2019-05-21T11:42:53.119Z,-40.70
2019-05-21T11:43:51.164Z,-40.63
2019-05-21T11:44:51.136Z,-45.02
2019-05-21T11:45:51.137Z,-43.02
2019-05-21T11:46:51.112Z,-50.74
2019-05-21T11:47:54.424Z,-45.31
2019-05-21T11:48:51.133Z,-42.69
2019-05-21T11:49:51.077Z,-44.90
2019-05-21T11:50:51.059Z,-50.27
2019-05-21T11:51:51.052Z,-44.92
2019-05-21T11:52:51.040Z,-45.88
2019-05-21T11:53:51.223Z,-48.08
2019-05-21T11:54:51.032Z,-43.07
2019-05-21T11:55:51.047Z,-53.29
2019-05-21T11:56:50.996Z,-52.13
2019-05-21T11:57:50.996Z,-55.16
2019-05-21T11:58:51.039Z,-53.99
2019-05-21T11:59:50.991Z,-64.35
2019-05-21T12:00:50.966Z,-50.51
2019-05-21T12:01:50.944Z,-71.38
2019-05-21T12:02:50.929Z,-49.46
2019-05-21T12:03:50.929Z,-60.02
2019-05-21T12:04:50.914Z,-56.61
2019-05-21T12:05:50.961Z,-52.87
2019-05-21T12:06:50.878Z,-63.99
2019-05-21T12:07:50.867Z,-53.67
2019-05-21T12:08:56.599Z,-55.52
2019-05-21T12:09:51.865Z,-50.00
2019-05-21T12:10:50.850Z,-61.55
2019-05-21T12:11:50.822Z,-49.11
2019-05-21T12:12:50.862Z,-48.89
2019-05-21T12:13:50.801Z,-57.18
2019-05-21T12:14:50.807Z,-49.36
2019-05-21T12:15:50.783Z,-51.64
2019-05-21T12:16:50.774Z,-53.65
2019-05-21T12:17:50.764Z,-62.73
2019-05-21T12:18:50.839Z,-51.81
2019-05-21T12:19:50.806Z,-61.66
2019-05-21T12:20:50.779Z,-52.71
2019-05-21T12:21:50.731Z,-55.30
2019-05-21T12:22:50.716Z,-55.13
2019-05-21T12:23:50.699Z,-57.39
2019-05-21T12:24:50.696Z,-57.32
2019-05-21T12:25:50.701Z,-61.83
2019-05-21T12:26:50.680Z,-62.43
2019-05-21T12:27:50.672Z,-75.46
2019-05-21T12:28:50.687Z,-63.25